createdAt,value
2023-01-02T00:01:04.947Z,5.77
2023-01-02T00:03:33.014Z,5.79
2023-01-02T00:06:03.778Z,5.82
2023-01-02T00:08:31.803Z,5.89
2023-01-02T00:11:00.174Z,5.89
2023-01-02T00:13:28.388Z,5.98
2023-01-02T00:15:57.619Z,6.01
2023-01-02T00:18:25.492Z,5.93
2023-01-02T00:20:53.351Z,5.92
2023-01-02T00:23:21.201Z,5.85
2023-01-02T00:25:49.062Z,5.70
2023-01-02T00:28:17.223Z,5.71
2023-01-02T00:30:45.205Z,5.63
2023-01-02T00:33:14.433Z,5.61
2023-01-02T00:35:42.574Z,5.58
2023-01-02T00:38:10.394Z,5.55
2023-01-02T00:40:38.558Z,5.48
2023-01-02T00:43:06.426Z,5.48
2023-01-02T00:45:34.295Z,5.51
2023-01-02T00:48:02.087Z,5.51
2023-01-02T00:50:31.249Z,5.51
2023-01-02T00:52:59.527Z,5.50
2023-01-02T00:55:27.331Z,5.25
2023-01-02T00:57:55.211Z,5.33
2023-01-02T01:00:24.321Z,5.17
2023-01-02T01:02:56.473Z,5.11
2023-01-02T01:05:24.624Z,5.06
2023-01-02T01:07:54.833Z,5.06
2023-01-02T01:10:23.164Z,5.03
2023-01-02T01:12:52.152Z,5.11
2023-01-02T01:15:20.150Z,5.23
2023-01-02T01:17:48.149Z,5.21
2023-01-02T01:20:16.009Z,5.17
2023-01-02T01:22:44.025Z,5.16
2023-01-02T01:25:13.360Z,5.18
2023-01-02T01:27:41.294Z,5.18
2023-01-02T01:30:09.982Z,5.24
2023-01-02T01:32:37.846Z,5.32
2023-01-02T01:35:08.018Z,5.36
2023-01-02T01:37:35.935Z,5.40
2023-01-02T01:40:03.774Z,5.32
2023-01-02T01:42:34.673Z,5.31
2023-01-02T01:45:02.650Z,5.35
2023-01-02T01:47:38.791Z,5.35
2023-01-02T01:50:10.297Z,5.31
2023-01-02T01:52:42.891Z,5.27
2023-01-02T01:55:15.461Z,5.13
2023-01-02T01:57:50.410Z,5.09
2023-01-02T02:00:18.890Z,5.11
2023-01-02T02:02:51.642Z,5.14
2023-01-02T02:05:24.963Z,5.14
2023-01-02T02:08:03.053Z,5.08
2023-01-02T02:10:31.463Z,5.10
2023-01-02T02:13:00.809Z,5.06
2023-01-02T02:15:37.485Z,5.07
2023-01-02T02:18:17.753Z,5.08
2023-01-02T02:20:52.650Z,5.09
2023-01-02T02:23:46.925Z,5.07
2023-01-02T02:26:54.549Z,4.99
2023-01-02T02:30:04.370Z,4.95
2023-01-02T02:33:01.745Z,4.98
2023-01-02T02:35:38.768Z,5.01
2023-01-02T02:38:12.993Z,5.02
2023-01-02T02:40:54.593Z,4.98
2023-01-02T02:43:30.376Z,4.95
2023-01-02T02:46:06.389Z,4.99
2023-01-02T02:48:46.846Z,5.01
2023-01-02T02:51:19.749Z,5.00
2023-01-02T02:53:55.219Z,4.99
2023-01-02T02:56:25.729Z,4.91
2023-01-02T02:58:56.305Z,4.93
2023-01-02T03:01:30.519Z,4.95
2023-01-02T03:04:00.441Z,4.96
2023-01-02T03:06:46.480Z,5.00
2023-01-02T03:09:20.138Z,4.94
2023-01-02T03:11:56.072Z,4.87
2023-01-02T03:14:34.537Z,4.88
2023-01-02T03:17:07.386Z,4.69
2023-01-02T03:19:42.907Z,4.80
2023-01-02T03:22:16.303Z,4.83
2023-01-02T03:24:46.323Z,4.84
2023-01-02T03:27:23.096Z,4.86
2023-01-02T03:29:55.283Z,4.85
2023-01-02T03:32:28.901Z,4.89
2023-01-02T03:35:02.302Z,4.82
2023-01-02T03:37:34.014Z,4.68
2023-01-02T03:40:08.079Z,4.63
2023-01-02T03:42:41.519Z,4.63
2023-01-02T03:45:17.129Z,4.62
2023-01-02T03:47:53.562Z,4.63
2023-01-02T03:50:26.318Z,4.59
2023-01-02T03:52:54.681Z,4.59
2023-01-02T03:55:24.765Z,4.59
2023-01-02T03:57:59.042Z,4.58
2023-01-02T04:00:34.398Z,4.60
2023-01-02T04:03:07.415Z,4.45
2023-01-02T04:05:41.876Z,4.67
2023-01-02T04:08:14.651Z,4.65
2023-01-02T04:10:45.151Z,4.68
2023-01-02T04:13:17.516Z,4.71
2023-01-02T04:15:48.269Z,4.69
2023-01-02T04:18:21.736Z,4.65
2023-01-02T04:20:54.681Z,4.61
2023-01-02T04:23:26.434Z,4.58
2023-01-02T04:26:00.313Z,4.50
2023-01-02T04:28:31.064Z,4.44
2023-01-02T04:31:06.754Z,4.42
2023-01-02T04:33:39.095Z,4.43
2023-01-02T04:36:13.457Z,4.37
2023-01-02T04:38:42.627Z,4.36
2023-01-02T04:41:13.534Z,4.38
2023-01-02T04:43:41.649Z,4.33
2023-01-02T04:46:09.487Z,4.41
2023-01-02T04:48:37.968Z,4.46
2023-01-02T04:51:06.258Z,4.47
2023-01-02T04:53:35.491Z,4.47
2023-01-02T04:56:03.437Z,4.47
2023-01-02T04:58:31.437Z,4.42
2023-01-02T05:01:00.039Z,4.42
2023-01-02T05:03:28.017Z,4.43
2023-01-02T05:06:00.797Z,4.39
2023-01-02T05:08:29.858Z,4.35
2023-01-02T05:11:06.371Z,4.36
2023-01-02T05:13:34.348Z,4.37
2023-01-02T05:16:03.900Z,4.38
2023-01-02T05:18:32.777Z,4.23
2023-01-02T05:21:02.696Z,4.36
2023-01-02T05:23:57.047Z,4.26
2023-01-02T05:26:26.466Z,4.16
2023-01-02T05:28:54.975Z,3.92
2023-01-02T05:31:23.329Z,3.74
2023-01-02T05:33:53.492Z,3.69
2023-01-02T05:36:22.451Z,3.73
2023-01-02T05:38:50.499Z,3.74
2023-01-02T05:41:18.435Z,3.76
2023-01-02T05:43:47.751Z,3.78
2023-01-02T05:46:16.921Z,3.85
2023-01-02T05:48:45.936Z,4.00
2023-01-02T05:51:15.879Z,4.10
2023-01-02T05:53:44.301Z,4.15
2023-01-02T05:56:13.816Z,4.23
2023-01-02T05:58:44.713Z,4.23
2023-01-02T06:01:15.404Z,4.35
2023-01-02T06:03:46.274Z,4.44
2023-01-02T06:06:14.490Z,4.51
2023-01-02T06:08:42.476Z,4.56
2023-01-02T06:11:10.891Z,4.47
2023-01-02T06:13:39.595Z,4.48
2023-01-02T06:16:09.556Z,4.46
2023-01-02T06:18:40.385Z,4.50
2023-01-02T06:21:09.915Z,4.50
2023-01-02T06:23:38.337Z,4.49
2023-01-02T06:26:07.868Z,4.47
2023-01-02T06:28:35.762Z,4.50
2023-01-02T06:31:05.205Z,4.57
2023-01-02T06:33:33.573Z,4.60
2023-01-02T06:36:04.440Z,4.64
2023-01-02T06:38:32.567Z,4.71
2023-01-02T06:41:02.478Z,4.52
2023-01-02T06:43:31.203Z,4.65
2023-01-02T06:45:59.897Z,4.61
2023-01-02T06:48:28.393Z,4.58
2023-01-02T06:50:56.354Z,4.60
2023-01-02T06:53:25.567Z,4.60
2023-01-02T06:55:54.097Z,4.74
2023-01-02T06:58:22.748Z,4.81
2023-01-02T07:00:51.168Z,4.88
2023-01-02T07:03:19.387Z,4.91
2023-01-02T07:05:47.551Z,4.94
2023-01-02T07:08:16.452Z,5.02
2023-01-02T07:10:52.536Z,5.00
2023-01-02T07:13:21.080Z,5.05
2023-01-02T07:15:48.891Z,5.10
2023-01-02T07:18:16.702Z,5.09
2023-01-02T07:20:44.911Z,5.11
2023-01-02T07:23:12.790Z,5.19
2023-01-02T07:25:44.348Z,5.04
2023-01-02T07:28:13.981Z,5.27
2023-01-02T07:30:41.854Z,5.23
2023-01-02T07:33:09.732Z,5.27
2023-01-02T07:35:38.457Z,5.18
2023-01-02T07:38:06.274Z,5.21
2023-01-02T07:40:34.662Z,5.27
2023-01-02T07:43:02.487Z,5.32
2023-01-02T07:45:33.071Z,5.40
2023-01-02T07:48:01.128Z,5.26
2023-01-02T07:50:29.150Z,5.52
2023-01-02T07:52:57.012Z,5.56
2023-01-02T07:55:24.822Z,5.57
2023-01-02T07:57:52.874Z,5.58
2023-01-02T08:00:21.639Z,5.67
2023-01-02T08:02:55.129Z,5.65
2023-01-02T08:05:23.857Z,5.65
2023-01-02T08:07:51.819Z,5.61
2023-01-02T08:10:19.659Z,5.45
2023-01-02T08:12:47.479Z,5.66
2023-01-02T08:15:15.515Z,5.74
2023-01-02T08:17:43.318Z,5.81
2023-01-02T08:20:12.898Z,5.92
2023-01-02T08:22:40.941Z,5.89
2023-01-02T08:25:10.687Z,5.89
2023-01-02T08:27:39.171Z,5.89
2023-01-02T08:30:08.033Z,5.84
2023-01-02T08:32:37.434Z,5.84
2023-01-02T08:35:06.316Z,5.89
2023-01-02T08:37:35.835Z,6.02
2023-01-02T08:40:06.574Z,6.10
2023-01-02T08:42:34.416Z,6.20
2023-01-02T08:45:02.228Z,6.33
2023-01-02T08:47:30.146Z,6.40
2023-01-02T08:49:57.977Z,6.47
2023-01-02T08:52:25.876Z,6.55
2023-01-02T08:54:55.214Z,6.42
2023-01-02T08:57:23.148Z,6.45
2023-01-02T08:59:51.094Z,6.48
2023-01-02T09:02:19.510Z,6.52
2023-01-02T09:04:47.442Z,6.51
2023-01-02T09:07:15.430Z,6.48
2023-01-02T09:09:43.333Z,6.55
2023-01-02T09:12:12.467Z,6.68
2023-01-02T09:14:40.398Z,6.79
2023-01-02T09:17:08.545Z,6.89
2023-01-02T09:19:37.034Z,7.03
2023-01-02T09:22:05.746Z,7.10
2023-01-02T09:24:33.677Z,7.12
2023-01-02T09:27:01.527Z,7.19
2023-01-02T09:29:30.758Z,7.23
2023-01-02T09:31:58.627Z,7.21
2023-01-02T09:34:27.863Z,7.30
2023-01-02T09:36:55.757Z,7.33
2023-01-02T09:39:28.541Z,7.29
2023-01-02T09:42:01.773Z,7.09
2023-01-02T09:44:38.088Z,7.27
2023-01-02T09:47:09.222Z,7.29
2023-01-02T09:49:44.846Z,7.32
2023-01-02T09:52:16.913Z,7.28
2023-01-02T09:54:44.868Z,7.33
2023-01-02T09:57:28.368Z,7.30
2023-01-02T10:00:03.711Z,7.33
2023-01-02T10:02:46.119Z,7.31
2023-01-02T10:05:28.681Z,7.37
2023-01-02T10:08:04.687Z,7.46
2023-01-02T10:10:36.343Z,7.44
2023-01-02T10:13:14.507Z,7.48
2023-01-02T10:15:48.258Z,7.50
2023-01-02T10:18:23.366Z,7.58
2023-01-02T10:20:56.461Z,7.71
2023-01-02T10:23:29.614Z,7.78
2023-01-02T10:26:02.538Z,7.92
2023-01-02T10:28:40.847Z,8.04
2023-01-02T10:31:16.575Z,8.14
2023-01-02T10:33:48.637Z,8.22
2023-01-02T10:36:26.533Z,8.18
2023-01-02T10:38:59.199Z,8.12
2023-01-02T10:41:27.975Z,8.16
2023-01-02T10:43:59.217Z,8.13
2023-01-02T10:46:34.632Z,8.10
2023-01-02T10:49:03.656Z,8.13
2023-01-02T10:51:31.977Z,8.19
2023-01-02T10:54:01.823Z,8.21
2023-01-02T10:56:32.385Z,8.24
2023-01-02T10:59:01.267Z,8.28
2023-01-02T11:01:31.325Z,8.36
2023-01-02T11:04:13.510Z,8.49
2023-01-02T11:06:56.729Z,8.57
2023-01-02T11:09:27.024Z,8.64
2023-01-02T11:11:56.479Z,8.70
2023-01-02T11:14:28.894Z,8.75
2023-01-02T11:17:05.401Z,8.75
2023-01-02T11:19:41.004Z,8.79
2023-01-02T11:22:09.529Z,8.69
2023-01-02T11:24:53.010Z,8.73
2023-01-02T11:27:31.704Z,8.71
2023-01-02T11:30:00.567Z,8.67
2023-01-02T11:32:38.586Z,8.63
2023-01-02T11:35:27.632Z,8.50
2023-01-02T11:37:56.148Z,8.59
2023-01-02T11:40:27.912Z,8.58
2023-01-02T11:43:16.473Z,8.56
2023-01-02T11:45:45.036Z,8.50
2023-01-02T11:48:21.654Z,8.42
2023-01-02T11:50:50.899Z,8.45
2023-01-02T11:53:22.378Z,8.44
2023-01-02T11:55:55.487Z,8.44
2023-01-02T11:58:29.141Z,8.48
2023-01-02T12:01:03.596Z,8.49
2023-01-02T12:03:34.807Z,8.50
2023-01-02T12:06:16.262Z,8.52
2023-01-02T12:08:59.474Z,8.57
2023-01-02T12:11:40.830Z,8.68
2023-01-02T12:14:14.892Z,8.75
2023-01-02T12:16:51.911Z,8.80
2023-01-02T12:20:10.625Z,8.83
2023-01-02T12:22:56.134Z,8.86
2023-01-02T12:25:42.933Z,8.89
2023-01-02T12:28:26.946Z,8.94
2023-01-02T12:31:10.054Z,9.01
2023-01-02T12:33:46.672Z,8.94
2023-01-02T12:36:35.372Z,9.06
2023-01-02T12:39:43.239Z,9.00
2023-01-02T12:42:21.677Z,9.12
2023-01-02T12:44:53.664Z,9.16
2023-01-02T12:47:42.970Z,9.16
2023-01-02T12:50:31.461Z,9.21
2023-01-02T12:53:15.331Z,9.25
2023-01-02T12:55:53.713Z,9.25
2023-01-02T12:58:36.396Z,9.28
2023-01-02T13:01:16.647Z,9.32
2023-01-02T13:04:00.032Z,9.35
2023-01-02T13:06:45.205Z,9.40
2023-01-02T13:09:23.186Z,9.42
2023-01-02T13:12:02.038Z,9.44
2023-01-02T13:14:36.729Z,9.34
2023-01-02T13:17:27.156Z,9.46
2023-01-02T13:20:00.855Z,9.45
2023-01-02T13:22:37.143Z,9.45
2023-01-02T13:25:06.245Z,9.45
2023-01-02T13:27:35.598Z,9.42
2023-01-02T13:30:03.809Z,9.40
2023-01-02T13:32:32.922Z,9.36
2023-01-02T13:35:03.571Z,9.41
2023-01-02T13:37:32.173Z,9.36
2023-01-02T13:40:03.234Z,9.34
2023-01-02T13:42:52.218Z,9.34
2023-01-02T13:45:25.207Z,9.30
2023-01-02T13:47:56.244Z,9.34
2023-01-02T13:50:27.880Z,9.31
2023-01-02T13:53:17.847Z,9.28
2023-01-02T13:56:05.782Z,9.27
2023-01-02T13:58:48.777Z,9.25
2023-01-02T14:01:52.395Z,9.22
2023-01-02T14:04:48.935Z,9.15
2023-01-02T14:07:55.013Z,9.18
2023-01-02T14:10:49.847Z,9.18
2023-01-02T14:13:30.710Z,9.17
2023-01-02T14:16:48.918Z,9.12
2023-01-02T14:19:19.948Z,9.18
2023-01-02T14:21:53.756Z,9.17
2023-01-02T14:24:30.539Z,9.16
2023-01-02T14:27:03.547Z,9.10
2023-01-02T14:29:32.786Z,9.10
2023-01-02T14:32:05.661Z,9.08
2023-01-02T14:34:35.038Z,9.06
2023-01-02T14:37:04.419Z,9.06
2023-01-02T14:39:36.816Z,9.01
2023-01-02T14:42:39.945Z,9.02
2023-01-02T14:45:13.850Z,9.01
2023-01-02T14:47:46.094Z,9.00
2023-01-02T14:50:16.756Z,8.99
2023-01-02T14:52:52.095Z,8.97
2023-01-02T14:55:23.515Z,8.94
2023-01-02T14:57:54.237Z,8.90
2023-01-02T15:00:27.932Z,8.84
2023-01-02T15:03:00.790Z,8.79
2023-01-02T15:05:36.190Z,8.66
2023-01-02T15:08:11.832Z,8.64
2023-01-02T15:10:56.336Z,8.62
2023-01-02T15:13:26.954Z,8.59
2023-01-02T15:16:00.922Z,8.58
2023-01-02T15:18:32.633Z,8.43
2023-01-02T15:21:08.190Z,8.48
2023-01-02T15:23:42.988Z,8.40
2023-01-02T15:26:31.837Z,8.40
2023-01-02T15:29:03.617Z,8.39
2023-01-02T15:31:32.286Z,8.38
2023-01-02T15:34:01.890Z,8.29
2023-01-02T15:36:36.152Z,8.31
2023-01-02T15:39:12.291Z,8.29
2023-01-02T15:41:46.046Z,8.23
2023-01-02T15:44:33.005Z,8.29
2023-01-02T15:47:01.430Z,8.27
2023-01-02T15:49:29.527Z,8.25
2023-01-02T15:51:58.896Z,8.25
2023-01-02T15:54:29.113Z,8.19
2023-01-02T15:57:06.174Z,8.10
2023-01-02T15:59:37.060Z,8.05
2023-01-02T16:02:05.133Z,8.07
2023-01-02T16:04:35.088Z,8.09
2023-01-02T16:07:15.756Z,8.04
2023-01-02T16:09:54.878Z,7.96
2023-01-02T16:12:24.306Z,7.92
2023-01-02T16:14:55.650Z,7.89
2023-01-02T16:17:27.189Z,7.85
2023-01-02T16:19:59.694Z,7.78
2023-01-02T16:22:30.966Z,7.76
2023-01-02T16:25:05.634Z,7.77
2023-01-02T16:27:37.721Z,7.70
2023-01-02T16:30:16.836Z,7.77
2023-01-02T16:32:48.919Z,7.68
2023-01-02T16:35:22.245Z,7.68
2023-01-02T16:37:53.567Z,7.63
2023-01-02T16:41:01.612Z,7.62
2023-01-02T16:43:30.323Z,7.60
2023-01-02T16:45:59.471Z,7.60
2023-01-02T16:48:30.087Z,7.58
2023-01-02T16:50:59.701Z,7.45
2023-01-02T16:53:29.915Z,7.55
2023-01-02T16:56:01.031Z,7.52
2023-01-02T16:58:29.864Z,7.47
2023-01-02T17:00:58.062Z,7.43
2023-01-02T17:03:28.327Z,7.39
2023-01-02T17:06:01.354Z,7.35
2023-01-02T17:08:31.616Z,7.32
2023-01-02T17:11:01.610Z,7.27
2023-01-02T17:13:30.651Z,7.20
2023-01-02T17:15:59.312Z,7.18
2023-01-02T17:18:27.510Z,7.17
2023-01-02T17:20:55.369Z,7.20
2023-01-02T17:23:23.217Z,7.14
2023-01-02T17:25:51.160Z,7.14
2023-01-02T17:28:20.652Z,7.12
2023-01-02T17:30:50.146Z,7.11
2023-01-02T17:33:18.794Z,7.09
2023-01-02T17:35:47.535Z,7.07
2023-01-02T17:38:15.450Z,7.05
2023-01-02T17:40:43.579Z,7.03
2023-01-02T17:43:11.540Z,6.99
2023-01-02T17:45:42.264Z,6.93
2023-01-02T17:48:12.927Z,6.80
2023-01-02T17:50:43.087Z,6.94
2023-01-02T17:53:10.946Z,6.92
2023-01-02T17:55:38.767Z,6.88
2023-01-02T17:58:06.619Z,6.83
2023-01-02T18:00:34.586Z,6.80
2023-01-02T18:03:03.805Z,6.78
2023-01-02T18:05:32.745Z,6.77
2023-01-02T18:08:00.542Z,6.75
2023-01-02T18:10:32.880Z,6.75
2023-01-02T18:13:01.421Z,6.75
2023-01-02T18:15:29.619Z,6.76
2023-01-02T18:18:00.441Z,6.78
2023-01-02T18:20:29.710Z,6.67
2023-01-02T18:22:57.977Z,6.83
2023-01-02T18:25:28.068Z,6.85
2023-01-02T18:27:59.155Z,6.89
2023-01-02T18:30:27.728Z,6.95
2023-01-02T18:33:02.538Z,6.89
2023-01-02T18:38:30.556Z,6.77
2023-01-02T18:40:58.532Z,6.67
2023-01-02T18:43:29.469Z,6.54
2023-01-02T18:46:00.025Z,6.60
2023-01-02T18:48:28.541Z,6.53
2023-01-02T18:51:03.212Z,6.54
2023-01-02T18:53:35.720Z,6.43
2023-01-02T18:56:12.322Z,6.52
2023-01-02T18:58:43.286Z,6.53
2023-01-02T19:01:24.702Z,6.56
2023-01-02T19:03:56.741Z,6.61
2023-01-02T19:06:27.962Z,6.53
2023-01-02T19:09:02.880Z,6.57
2023-01-02T19:11:52.139Z,6.54
2023-01-02T19:14:24.163Z,6.55
2023-01-02T19:16:58.607Z,6.59
2023-01-02T19:19:27.002Z,6.69
2023-01-02T19:21:56.757Z,6.77
2023-01-02T19:24:28.858Z,6.78
2023-01-02T19:26:58.920Z,6.74
2023-01-02T19:29:30.815Z,6.85
2023-01-02T19:32:03.465Z,6.74
2023-01-02T19:34:43.297Z,6.61
2023-01-02T19:37:39.097Z,6.65
2023-01-02T19:40:18.566Z,6.52
2023-01-02T19:42:47.925Z,6.55
2023-01-02T19:45:17.577Z,6.50
2023-01-02T19:47:46.641Z,6.31
2023-01-02T19:50:16.719Z,6.28
2023-01-02T19:52:46.128Z,6.24
2023-01-02T19:55:14.348Z,6.23
2023-01-02T19:57:42.223Z,6.26
2023-01-02T20:00:13.121Z,6.20
2023-01-02T20:02:41.715Z,6.14
2023-01-02T20:05:11.936Z,6.20
2023-01-02T20:07:43.058Z,6.24
2023-01-02T20:10:12.682Z,6.34
2023-01-02T20:12:41.502Z,6.38
2023-01-02T20:15:12.187Z,6.37
2023-01-02T20:17:40.624Z,6.37
2023-01-02T20:20:11.165Z,6.43
2023-01-02T20:22:39.073Z,6.47
2023-01-02T20:25:07.942Z,6.50
2023-01-02T20:27:37.440Z,6.50
2023-01-02T20:30:07.045Z,6.49
2023-01-02T20:32:35.354Z,6.47
2023-01-02T20:35:03.599Z,6.44
2023-01-02T20:37:31.431Z,6.45
2023-01-02T20:39:59.485Z,6.43
2023-01-02T20:42:27.397Z,6.50
2023-01-02T20:44:56.778Z,6.52
2023-01-02T20:47:24.562Z,6.54
2023-01-02T20:49:52.481Z,6.45
2023-01-02T20:52:21.326Z,6.57
2023-01-02T20:57:18.121Z,6.49
2023-01-02T20:59:45.998Z,6.52
2023-01-02T21:02:15.368Z,6.51
2023-01-02T21:04:43.431Z,6.45
2023-01-02T21:07:11.376Z,6.37
2023-01-02T21:09:39.280Z,6.37
2023-01-02T21:12:27.890Z,6.30
2023-01-02T21:14:55.938Z,6.20
2023-01-02T21:17:25.201Z,6.19
2023-01-02T21:19:53.167Z,6.12
2023-01-02T21:22:21.299Z,6.14
2023-01-02T21:24:49.150Z,6.12
2023-01-02T21:27:17.164Z,6.02
2023-01-02T21:29:45.963Z,5.97
2023-01-02T21:32:14.154Z,5.96
2023-01-02T21:34:43.307Z,5.98
2023-01-02T21:37:11.121Z,5.98
2023-01-02T21:39:38.914Z,5.89
2023-01-02T21:42:19.006Z,5.69
2023-01-02T21:44:48.346Z,5.61
2023-01-02T21:47:17.008Z,5.57
2023-01-02T21:49:46.378Z,5.62
2023-01-02T21:52:14.711Z,5.54
2023-01-02T21:54:42.708Z,5.46
2023-01-02T21:57:10.784Z,5.41
2023-01-02T21:59:38.888Z,5.26
2023-01-02T22:02:06.992Z,5.38
2023-01-02T22:04:35.985Z,5.21
2023-01-02T22:09:53.273Z,5.36
2023-01-02T22:12:21.128Z,5.41
2023-01-02T22:14:49.097Z,5.39
2023-01-02T22:17:16.966Z,5.44
2023-01-02T22:19:44.911Z,5.49
2023-01-02T22:22:14.513Z,5.58
2023-01-02T22:24:44.763Z,5.73
2023-01-02T22:27:14.901Z,5.87
2023-01-02T22:30:18.999Z,6.00
2023-01-02T22:32:33.815Z,6.06
2023-01-02T22:35:03.550Z,6.12
2023-01-02T22:37:32.943Z,6.18
2023-01-02T22:40:02.058Z,6.18
2023-01-02T22:43:00.503Z,6.14
2023-01-02T22:45:34.172Z,6.11
2023-01-02T22:48:07.180Z,6.10
2023-01-02T22:50:43.514Z,6.10
2023-01-02T22:53:20.111Z,6.11
2023-01-02T22:55:48.309Z,6.10
2023-01-02T22:58:16.259Z,6.11
2023-01-02T23:00:44.271Z,6.12
2023-01-02T23:03:14.175Z,6.11
2023-01-02T23:05:42.486Z,6.12
2023-01-02T23:08:10.661Z,6.19
2023-01-02T23:10:40.271Z,6.19
2023-01-02T23:13:08.132Z,6.21
2023-01-02T23:15:35.945Z,6.20
2023-01-02T23:18:21.309Z,6.19
2023-01-02T23:20:49.521Z,6.22
2023-01-02T23:23:17.380Z,6.25
2023-01-02T23:25:46.635Z,6.24
2023-01-02T23:28:39.236Z,6.28
2023-01-02T23:31:04.132Z,6.31
2023-01-02T23:33:32.041Z,6.24
2023-01-02T23:36:00.455Z,6.28
2023-01-02T23:38:28.485Z,6.31
2023-01-02T23:40:57.745Z,6.28
2023-01-02T23:43:25.635Z,6.26
2023-01-02T23:45:53.646Z,6.19
2023-01-02T23:48:21.882Z,6.11
2023-01-02T23:50:57.496Z,6.06
2023-01-02T23:53:25.775Z,6.03
2023-01-02T23:55:53.719Z,6.00
2023-01-02T23:58:23.777Z,5.95
